Airfield :
LOGIN :

Register | Disclaimer

   EN    FR    IT 

 










Legend :    VFR   Marginal VFR   IFR   Intensive IFR   Very Intensive IFR
Visi :
Ceiling :
>= 8 km
>= 3000ft
5 to 8 km
1000 to 3000 ft
1500m to 5 km
500 to 1000 ft
800 to 1500m
200 to 500 ft
< 800m
< 200 ft
Symbols :   Thunderstorms  Fog  Heavy snow  Heavy precipitations  Wind > 20 kt
SIGMETs :     Misc.  Thunderstorms  Icing  Turbulence  Mountain Waves  Volcanic Ashes






- Airport Elevation : 177 ft
- IATA code : BRI


LIBD - Palese Macchie Bari

CURRENT METAR :
  • 250820Z 02005KT 340V060 CAVOK 25/22 Q1012

EXPIRED METARs :
  • 250750Z 36004KT 310V040 CAVOK 26/21 Q1012
  • 250720Z 11003KT 030V160 CAVOK 28/17 Q1012
  • 250650Z VRB02KT CAVOK 27/18 Q1011
  • 250620Z 27003KT 230V310 CAVOK 25/19 Q1011
  • 250550Z 29003KT 240V310 CAVOK 25/19 Q1011
  • 250520Z 25003KT 230V290 CAVOK 24/17 Q1011
  • 250450Z 24004KT CAVOK 23/15 Q1011
  • 250420Z 28003KT CAVOK 22/15 Q1011
  • 250350Z 25004KT CAVOK 21/15 Q1011

TAF TAF LIBD
Valid from the 25 at 06:00 until the 26 at 06:00 UTC


250500Z 2506/2606 28007KT 9999 FEW035
BECMG 2506/2508 22010KT
TEMPO 2509/2513 SHRA
BECMG 2512/2514 11010KT
BECMG 2517/2519 VRB05KT



MET'MAP, your aeronautical weather chart ! - Copyright ORBIFLY December 2007 - Disclaimer

ORBIFLY MET'MAP TEAM :

Programming & Development : Alexandra Zaïnal
Original concept : Baudouin d'Aumeries
Technical & hardware support : Manuel Goepfert
Assistance : Marc-Olivier Méhu




SOURCES & CREDITS :

   NOAA